createdAt,value
2022-09-28T00:00:11.462Z,1.60
2022-09-28T00:02:38.008Z,1.50
2022-09-28T00:05:04.631Z,2.17
2022-09-28T00:07:31.052Z,1.40
2022-09-28T00:09:57.478Z,1.48
2022-09-28T00:12:23.933Z,1.52
2022-09-28T00:14:50.379Z,1.60
2022-09-28T00:17:17.282Z,1.42
2022-09-28T00:19:44.952Z,1.48
2022-09-28T00:22:11.848Z,1.75
2022-09-28T00:24:38.241Z,1.40
2022-09-28T00:27:04.684Z,1.10
2022-09-28T00:29:32.223Z,2.17
2022-09-28T00:32:02.355Z,1.48
2022-09-28T00:34:36.834Z,1.70
2022-09-28T00:37:13.913Z,1.20
2022-09-28T00:39:44.387Z,1.25
2022-09-28T00:42:12.054Z,1.23
2022-09-28T00:44:40.643Z,1.20
2022-09-28T00:47:10.252Z,1.25
2022-09-28T00:50:09.543Z,0.80
2022-09-28T00:52:38.954Z,1.10
2022-09-28T00:55:07.818Z,1.20
2022-09-28T00:57:34.527Z,1.05
2022-09-28T01:00:01.924Z,1.08
2022-09-28T01:02:28.797Z,1.13
2022-09-28T01:04:57.018Z,1.13
2022-09-28T01:07:24.053Z,1.20
2022-09-28T01:09:51.521Z,0.88
2022-09-28T01:12:17.915Z,1.45
2022-09-28T01:14:44.754Z,0.70
2022-09-28T01:17:15.635Z,0.80
2022-09-28T01:20:00.890Z,1.13
2022-09-28T01:22:46.180Z,0.80
2022-09-28T01:25:18.804Z,0.80
2022-09-28T01:27:52.155Z,1.23
2022-09-28T01:30:19.916Z,1.02
2022-09-28T01:32:58.637Z,1.00
2022-09-28T01:35:32.954Z,1.45
2022-09-28T01:38:07.440Z,0.80
2022-09-28T01:40:34.941Z,0.90
2022-09-28T01:43:10.090Z,0.90
2022-09-28T01:45:47.795Z,0.75
2022-09-28T01:48:17.549Z,0.77
2022-09-28T01:50:45.848Z,1.25
2022-09-28T01:53:35.614Z,0.90
2022-09-28T01:56:04.552Z,0.82
2022-09-28T01:58:39.849Z,0.77
2022-09-28T02:01:20.724Z,0.95
2022-09-28T02:03:52.466Z,0.70
2022-09-28T02:06:21.729Z,0.70
2022-09-28T02:09:04.584Z,0.63
2022-09-28T02:11:32.470Z,0.95
2022-09-28T02:14:01.886Z,0.75
2022-09-28T02:16:34.805Z,0.63
2022-09-28T02:19:02.109Z,0.73
2022-09-28T02:21:32.196Z,0.60
2022-09-28T02:24:02.542Z,0.70
2022-09-28T02:26:35.018Z,0.75
2022-09-28T02:29:01.471Z,0.70
2022-09-28T02:31:28.240Z,0.70
2022-09-28T02:33:56.077Z,0.75
2022-09-28T02:36:23.088Z,0.60
2022-09-28T02:38:49.501Z,0.77
2022-09-28T02:41:21.933Z,0.50
2022-09-28T02:44:08.534Z,0.52
2022-09-28T02:46:47.110Z,0.60
2022-09-28T02:49:30.396Z,0.60
2022-09-28T02:52:11.338Z,0.60
2022-09-28T02:54:43.623Z,0.70
2022-09-28T02:59:45.254Z,0.60
2022-09-28T03:02:30.549Z,1.17
2022-09-28T03:04:56.981Z,0.77
2022-09-28T03:07:29.766Z,0.40
2022-09-28T03:10:02.680Z,0.50
2022-09-28T03:12:30.095Z,0.70
2022-09-28T03:15:07.467Z,0.60
2022-09-28T03:17:33.903Z,0.63
2022-09-28T03:20:00.355Z,0.63
2022-09-28T03:22:26.739Z,0.95
2022-09-28T03:24:53.133Z,0.52
2022-09-28T03:27:20.858Z,0.77
2022-09-28T03:29:47.327Z,0.63
2022-09-28T03:32:13.712Z,0.47
2022-09-28T03:34:40.108Z,0.65
2022-09-28T03:37:06.530Z,0.60
2022-09-28T03:39:32.940Z,0.60
2022-09-28T03:42:02.507Z,0.52
2022-09-28T03:44:28.909Z,0.40
2022-09-28T03:46:55.295Z,0.70
2022-09-28T03:49:21.742Z,0.40
2022-09-28T03:51:48.179Z,0.45
2022-09-28T03:54:14.587Z,0.93
2022-09-28T03:56:41.224Z,0.43
2022-09-28T03:59:07.854Z,0.50
2022-09-28T04:01:34.293Z,0.80
2022-09-28T04:04:00.844Z,0.50
2022-09-28T04:06:27.221Z,0.50
2022-09-28T04:08:53.691Z,0.85
2022-09-28T04:11:20.098Z,0.40
2022-09-28T04:13:52.549Z,0.47
2022-09-28T04:16:19.418Z,0.60
2022-09-28T04:18:47.148Z,0.50
2022-09-28T04:21:14.431Z,0.68
2022-09-28T04:23:41.188Z,0.50
2022-09-28T04:26:09.224Z,0.93
2022-09-28T04:28:54.047Z,0.40
2022-09-28T04:31:21.664Z,0.50
2022-09-28T04:34:09.498Z,0.75
2022-09-28T04:36:37.188Z,0.57
2022-09-28T04:39:04.195Z,0.45
2022-09-28T04:41:30.590Z,0.60
2022-09-28T04:43:57.043Z,0.80
2022-09-28T04:46:23.527Z,0.52
2022-09-28T04:48:49.934Z,0.57
2022-09-28T04:51:16.365Z,0.68
2022-09-28T04:53:42.906Z,0.40
2022-09-28T04:56:13.518Z,0.65
2022-09-28T04:58:40.344Z,0.85
2022-09-28T05:01:08.505Z,0.50
2022-09-28T05:03:35.274Z,0.60
2022-09-28T05:06:02.215Z,0.40
2022-09-28T05:08:29.051Z,0.82
2022-09-28T05:11:02.250Z,0.40
2022-09-28T05:13:29.005Z,0.65
2022-09-28T05:15:59.658Z,0.70
2022-09-28T05:18:28.290Z,0.63
2022-09-28T05:20:54.709Z,0.75
2022-09-28T05:23:21.106Z,0.50
2022-09-28T05:25:47.556Z,0.55
2022-09-28T05:28:14.001Z,1.02
2022-09-28T05:30:40.502Z,0.80
2022-09-28T05:33:06.917Z,0.50
2022-09-28T05:35:34.230Z,0.40
2022-09-28T05:38:05.205Z,0.50
2022-09-28T05:40:31.893Z,0.40
2022-09-28T05:42:58.895Z,0.65
2022-09-28T05:45:25.387Z,0.50
2022-09-28T05:47:51.866Z,0.50
2022-09-28T05:50:18.281Z,0.40
2022-09-28T05:52:44.730Z,0.50
2022-09-28T05:55:11.168Z,0.40
2022-09-28T05:57:37.789Z,0.55
2022-09-28T06:00:10.203Z,0.93
2022-09-28T06:02:36.717Z,0.38
2022-09-28T06:05:03.173Z,0.52
2022-09-28T06:07:29.674Z,0.88
2022-09-28T06:09:56.143Z,0.40
2022-09-28T06:12:22.579Z,0.50
2022-09-28T06:14:49.294Z,0.50
2022-09-28T06:17:15.664Z,0.30
2022-09-28T06:19:42.049Z,0.68
2022-09-28T06:22:09.058Z,0.50
2022-09-28T06:24:35.529Z,0.50
2022-09-28T06:27:01.946Z,0.60
2022-09-28T06:29:29.316Z,0.47
2022-09-28T06:31:56.152Z,1.15
2022-09-28T06:34:24.727Z,0.40
2022-09-28T06:36:51.393Z,0.47
2022-09-28T06:39:17.962Z,0.50
2022-09-28T06:41:44.420Z,0.50
2022-09-28T06:44:10.838Z,0.55
2022-09-28T06:46:38.862Z,0.52
2022-09-28T06:49:06.673Z,0.88
2022-09-28T06:51:33.418Z,0.55
2022-09-28T06:53:59.858Z,0.52
2022-09-28T06:56:30.598Z,0.57
2022-09-28T06:58:59.064Z,1.05
2022-09-28T07:01:25.522Z,0.50
2022-09-28T07:03:55.491Z,0.38
2022-09-28T07:06:24.225Z,0.40
2022-09-28T07:08:58.344Z,0.50
2022-09-28T07:11:39.610Z,0.60
2022-09-28T07:14:06.917Z,0.60
2022-09-28T07:16:59.804Z,0.98
2022-09-28T07:19:19.648Z,0.40
2022-09-28T07:21:52.481Z,0.60
2022-09-28T07:24:23.499Z,0.40
2022-09-28T07:26:49.866Z,0.50
2022-09-28T07:29:16.735Z,0.32
2022-09-28T07:31:43.158Z,0.43
2022-09-28T07:34:09.521Z,0.65
2022-09-28T07:36:36.340Z,0.90
2022-09-28T07:39:03.380Z,0.52
2022-09-28T07:41:32.645Z,0.63
2022-09-28T07:44:05.386Z,0.55
2022-09-28T07:46:32.846Z,0.40
2022-09-28T07:48:59.376Z,0.30
2022-09-28T07:51:25.912Z,0.40
2022-09-28T07:53:54.228Z,0.73
2022-09-28T07:56:20.653Z,0.55
2022-09-28T07:58:47.350Z,0.40
2022-09-28T08:01:16.754Z,0.57
2022-09-28T08:03:47.979Z,0.30
2022-09-28T08:06:17.049Z,0.47
2022-09-28T08:08:44.693Z,0.57
2022-09-28T08:11:12.457Z,0.73
2022-09-28T08:13:38.909Z,0.73
2022-09-28T08:16:07.449Z,0.40
2022-09-28T08:18:34.823Z,0.43
2022-09-28T08:21:21.149Z,0.45
2022-09-28T08:23:47.722Z,0.40
2022-09-28T08:26:15.675Z,0.43
2022-09-28T08:28:43.271Z,0.60
2022-09-28T08:31:09.842Z,0.50
2022-09-28T08:33:36.395Z,0.45
2022-09-28T08:36:04.349Z,0.45
2022-09-28T08:38:31.589Z,0.60
2022-09-28T08:41:00.793Z,1.08
2022-09-28T08:43:35.796Z,0.55
2022-09-28T08:46:02.285Z,0.50
2022-09-28T08:49:01.265Z,0.20
2022-09-28T08:51:46.820Z,0.40
2022-09-28T08:54:31.967Z,0.55
2022-09-28T08:57:19.068Z,0.40
2022-09-28T08:59:53.354Z,0.32
2022-09-28T09:02:33.705Z,0.68
2022-09-28T09:05:02.780Z,0.45
2022-09-28T09:07:38.243Z,1.20
2022-09-28T09:10:07.628Z,0.40
2022-09-28T09:12:40.242Z,0.40
2022-09-28T09:15:15.778Z,0.47
2022-09-28T09:17:45.478Z,0.93
2022-09-28T09:20:19.617Z,0.30
2022-09-28T09:22:59.896Z,0.50
2022-09-28T09:25:26.422Z,0.75
2022-09-28T09:28:20.523Z,0.30
2022-09-28T09:30:49.882Z,0.30
2022-09-28T09:33:17.236Z,0.45
2022-09-28T09:35:53.948Z,0.22
2022-09-28T09:38:20.530Z,0.20
2022-09-28T09:40:53.075Z,0.93
2022-09-28T09:43:28.067Z,0.32
2022-09-28T09:46:03.200Z,0.45
2022-09-28T09:50:59.615Z,0.57
2022-09-28T09:53:43.746Z,0.47
2022-09-28T09:56:28.675Z,0.45
2022-09-28T09:58:58.166Z,0.30
2022-09-28T10:01:30.001Z,0.50
2022-09-28T10:03:56.653Z,1.10
2022-09-28T10:06:41.999Z,0.57
2022-09-28T10:09:14.228Z,0.50
2022-09-28T10:14:09.561Z,1.17
2022-09-28T10:16:36.026Z,0.40
2022-09-28T10:19:02.577Z,0.60
2022-09-28T10:21:29.153Z,0.40
2022-09-28T10:23:57.066Z,0.47
2022-09-28T10:26:33.393Z,0.30
2022-09-28T10:29:04.544Z,0.30
2022-09-28T10:31:34.641Z,0.63
2022-09-28T10:34:01.109Z,0.20
2022-09-28T10:36:28.428Z,0.50
2022-09-28T10:38:55.922Z,0.65
2022-09-28T10:41:22.957Z,0.38
2022-09-28T10:44:06.215Z,1.02
2022-09-28T10:46:33.867Z,0.35
2022-09-28T10:49:06.483Z,0.40
2022-09-28T10:51:52.021Z,0.90
2022-09-28T10:54:26.199Z,0.85
2022-09-28T10:56:53.541Z,0.43
2022-09-28T10:59:29.038Z,0.22
2022-09-28T11:02:04.303Z,0.40
2022-09-28T11:04:36.541Z,0.40
2022-09-28T11:09:31.172Z,0.55
2022-09-28T11:11:58.963Z,0.77
2022-09-28T11:14:25.306Z,0.40
2022-09-28T11:17:11.614Z,0.55
2022-09-28T11:19:38.194Z,0.40
2022-09-28T11:22:20.253Z,0.55
2022-09-28T11:24:47.610Z,0.30
2022-09-28T11:27:25.377Z,0.43
2022-09-28T11:29:58.666Z,0.85
2022-09-28T11:32:26.355Z,0.70
2022-09-28T11:34:59.582Z,1.80
2022-09-28T11:37:37.503Z,0.57
2022-09-28T11:40:04.615Z,0.65
2022-09-28T11:42:33.970Z,0.40
2022-09-28T11:45:18.349Z,0.40
2022-09-28T11:47:47.816Z,0.55
2022-09-28T11:50:24.140Z,0.43
2022-09-28T11:52:56.155Z,0.70
2022-09-28T11:55:55.557Z,0.82
2022-09-28T11:58:33.471Z,1.65
2022-09-28T12:01:04.404Z,1.02
2022-09-28T12:03:42.848Z,1.58
2022-09-28T12:06:12.932Z,1.63
2022-09-28T12:08:46.944Z,1.80
2022-09-28T12:11:13.408Z,1.73
2022-09-28T12:13:42.585Z,1.55
2022-09-28T12:19:06.014Z,1.87
2022-09-28T12:21:35.258Z,2.10
2022-09-28T12:24:13.269Z,2.13
2022-09-28T12:26:47.275Z,1.90
2022-09-28T12:29:32.177Z,2.13
2022-09-28T12:32:03.242Z,1.48
2022-09-28T12:34:29.678Z,1.67
2022-09-28T12:37:04.756Z,1.50
2022-09-28T12:39:56.895Z,1.45
2022-09-28T12:42:27.637Z,1.83
2022-09-28T12:44:59.368Z,1.48
2022-09-28T12:47:26.132Z,1.58
2022-09-28T12:50:37.555Z,1.88
2022-09-28T12:53:07.410Z,1.48
2022-09-28T12:55:56.379Z,1.65
2022-09-28T12:58:51.572Z,1.40
2022-09-28T13:01:32.593Z,2.10
2022-09-28T13:04:02.241Z,1.33
2022-09-28T13:06:31.807Z,1.10
2022-09-28T13:09:01.483Z,1.33
2022-09-28T13:11:41.314Z,1.30
2022-09-28T13:14:08.065Z,0.70
2022-09-28T13:16:38.955Z,1.50
2022-09-28T13:19:08.214Z,1.55
2022-09-28T13:21:34.576Z,1.17
2022-09-28T13:24:20.787Z,0.90
2022-09-28T13:26:51.278Z,0.98
2022-09-28T13:29:18.821Z,0.95
2022-09-28T13:31:47.684Z,0.73
2022-09-28T13:34:20.557Z,0.93
2022-09-28T13:37:07.353Z,1.65
2022-09-28T13:39:35.303Z,1.10
2022-09-28T13:42:02.661Z,1.10
2022-09-28T13:44:46.246Z,1.65
2022-09-28T13:47:30.866Z,1.23
2022-09-28T13:49:57.225Z,0.90
2022-09-28T13:52:32.799Z,0.65
2022-09-28T13:54:59.416Z,0.68
2022-09-28T13:57:32.868Z,0.60
2022-09-28T14:00:10.663Z,0.63
2022-09-28T14:02:46.362Z,0.73
2022-09-28T14:05:21.827Z,0.50
2022-09-28T14:08:07.149Z,0.70
2022-09-28T14:10:53.322Z,0.60
2022-09-28T14:13:38.191Z,0.63
2022-09-28T14:16:24.857Z,0.80
2022-09-28T14:18:54.701Z,0.40
2022-09-28T14:21:40.179Z,0.70
2022-09-28T14:24:06.618Z,0.80
2022-09-28T14:26:51.991Z,0.45
2022-09-28T14:29:28.677Z,0.45
2022-09-28T14:32:20.411Z,0.70
2022-09-28T14:34:47.715Z,0.87
2022-09-28T14:37:45.089Z,0.40
2022-09-28T14:40:40.911Z,0.38
2022-09-28T14:43:24.758Z,0.73
2022-09-28T14:46:11.471Z,0.40
2022-09-28T14:48:47.962Z,1.15
2022-09-28T14:51:26.911Z,0.88
2022-09-28T14:53:54.808Z,1.23
2022-09-28T14:56:21.771Z,1.27
2022-09-28T14:58:51.974Z,1.10
2022-09-28T15:01:22.522Z,2.00
2022-09-28T15:03:51.276Z,1.52
2022-09-28T15:06:19.792Z,1.17
2022-09-28T15:08:46.240Z,1.17
2022-09-28T15:11:16.940Z,1.77
2022-09-28T15:13:43.558Z,2.47
2022-09-28T15:16:12.342Z,1.83
2022-09-28T15:18:43.908Z,1.48
2022-09-28T15:21:11.274Z,1.65
2022-09-28T15:23:41.983Z,1.50
2022-09-28T15:26:20.736Z,1.30
2022-09-28T15:28:47.291Z,3.33
2022-09-28T15:31:21.386Z,2.83
2022-09-28T15:34:06.320Z,2.58
2022-09-28T15:36:38.476Z,1.95
2022-09-28T15:39:16.063Z,3.03
2022-09-28T15:41:43.662Z,1.92
2022-09-28T15:44:12.873Z,2.13
2022-09-28T15:46:40.714Z,2.28
2022-09-28T15:49:08.574Z,1.60
2022-09-28T15:51:52.764Z,2.30
2022-09-28T15:54:27.567Z,1.80
2022-09-28T15:56:54.690Z,2.33
2022-09-28T15:59:32.048Z,2.20
2022-09-28T16:02:25.751Z,2.15
2022-09-28T16:04:56.736Z,2.22
2022-09-28T16:07:23.449Z,2.67
2022-09-28T16:09:58.466Z,2.15
2022-09-28T16:12:31.245Z,2.25
2022-09-28T16:14:59.473Z,2.60
2022-09-28T16:17:32.440Z,3.08
2022-09-28T16:20:01.990Z,2.13
2022-09-28T16:22:29.078Z,2.63
2022-09-28T16:24:57.220Z,2.47
2022-09-28T16:27:28.841Z,2.50
2022-09-28T16:30:28.891Z,2.05
2022-09-28T16:32:57.862Z,2.25
2022-09-28T16:35:25.516Z,2.67
2022-09-28T16:37:59.419Z,2.53
2022-09-28T16:40:26.355Z,1.70
2022-09-28T16:42:54.010Z,3.42
2022-09-28T16:45:21.647Z,2.00
2022-09-28T16:47:51.872Z,2.15
2022-09-28T16:50:21.791Z,2.30
2022-09-28T16:53:18.001Z,3.08
2022-09-28T16:55:44.875Z,2.70
2022-09-28T16:58:11.377Z,2.20
2022-09-28T17:00:37.850Z,1.63
2022-09-28T17:03:14.419Z,2.45
2022-09-28T17:05:41.011Z,3.10
2022-09-28T17:08:11.123Z,2.30
2022-09-28T17:11:02.550Z,2.17
2022-09-28T17:16:08.416Z,2.25
2022-09-28T17:18:39.075Z,2.53
2022-09-28T17:21:06.764Z,2.78
2022-09-28T17:23:33.416Z,2.20
2022-09-28T17:26:01.721Z,2.38
2022-09-28T17:28:30.047Z,2.63
2022-09-28T17:30:56.517Z,2.20
2022-09-28T17:33:23.084Z,2.08
2022-09-28T17:35:51.269Z,2.20
2022-09-28T17:38:17.866Z,3.15
2022-09-28T17:40:45.511Z,2.47
2022-09-28T17:43:11.983Z,2.58
2022-09-28T17:45:39.528Z,2.78
2022-09-28T17:48:06.603Z,2.92
2022-09-28T17:50:34.172Z,3.42
2022-09-28T17:53:05.909Z,3.25
2022-09-28T17:55:33.166Z,2.40
2022-09-28T17:58:01.443Z,3.13
2022-09-28T18:00:28.005Z,3.10
2022-09-28T18:02:55.032Z,2.75
2022-09-28T18:05:22.244Z,2.47
2022-09-28T18:07:49.869Z,3.58
2022-09-28T18:10:18.256Z,3.10
2022-09-28T18:12:44.851Z,3.03
2022-09-28T18:15:12.106Z,3.05
2022-09-28T18:17:39.610Z,3.00
2022-09-28T18:20:07.707Z,2.90
2022-09-28T18:22:34.748Z,3.35
2022-09-28T18:25:01.987Z,3.10
2022-09-28T18:27:30.473Z,2.80
2022-09-28T18:29:57.360Z,3.40
2022-09-28T18:32:24.352Z,3.28
2022-09-28T18:34:51.223Z,4.28
2022-09-28T18:37:18.016Z,3.58
2022-09-28T18:39:45.453Z,3.40
2022-09-28T18:42:12.594Z,4.00
2022-09-28T18:44:39.385Z,3.10
2022-09-28T18:47:06.131Z,3.17
2022-09-28T18:49:34.083Z,2.50
2022-09-28T18:52:02.087Z,3.97
2022-09-28T18:54:28.689Z,3.53
2022-09-28T18:56:56.492Z,2.70
2022-09-28T18:59:23.856Z,3.35
2022-09-28T19:01:52.256Z,3.13
2022-09-28T19:04:25.528Z,3.45
2022-09-28T19:06:56.838Z,3.08
2022-09-28T19:09:28.266Z,3.08
2022-09-28T19:11:57.554Z,3.63
2022-09-28T19:14:27.833Z,3.53
2022-09-28T19:16:57.355Z,2.92
2022-09-28T19:19:30.630Z,4.07
2022-09-28T19:21:57.415Z,3.55
2022-09-28T19:24:23.893Z,3.20
2022-09-28T19:27:05.595Z,2.33
2022-09-28T19:29:32.350Z,2.53
2022-09-28T19:31:59.219Z,3.33
2022-09-28T19:34:29.941Z,2.83
2022-09-28T19:36:56.982Z,2.80
2022-09-28T19:39:23.398Z,3.25
2022-09-28T19:41:53.000Z,2.72
2022-09-28T19:44:27.527Z,2.63
2022-09-28T19:46:58.756Z,3.08
2022-09-28T19:49:26.097Z,3.03
2022-09-28T19:52:13.880Z,3.35
2022-09-28T19:54:57.403Z,3.08
2022-09-28T19:57:24.974Z,2.63
2022-09-28T19:59:53.286Z,2.90
2022-09-28T20:02:21.269Z,2.38
2022-09-28T20:04:47.989Z,2.88
2022-09-28T20:07:15.072Z,3.25
2022-09-28T20:09:42.227Z,2.30
2022-09-28T20:12:08.784Z,2.45
2022-09-28T20:14:39.439Z,2.45
2022-09-28T20:17:06.797Z,2.83
2022-09-28T20:19:33.648Z,2.47
2022-09-28T20:22:02.842Z,2.90
2022-09-28T20:24:29.719Z,3.03
2022-09-28T20:27:01.656Z,3.03
2022-09-28T20:29:28.605Z,2.35
2022-09-28T20:31:55.006Z,2.42
2022-09-28T20:34:21.478Z,2.10
2022-09-28T20:36:48.334Z,2.13
2022-09-28T20:39:14.894Z,2.60
2022-09-28T20:41:48.540Z,2.60
2022-09-28T20:44:14.991Z,2.35
2022-09-28T20:46:43.817Z,3.03
2022-09-28T20:49:10.352Z,2.65
2022-09-28T20:51:36.738Z,1.92
2022-09-28T20:54:03.157Z,2.17
2022-09-28T20:56:31.485Z,2.40
2022-09-28T20:58:57.986Z,1.67
2022-09-28T21:01:25.879Z,2.13
2022-09-28T21:03:59.494Z,2.30
2022-09-28T21:06:26.960Z,1.90
2022-09-28T21:08:53.635Z,1.90
2022-09-28T21:11:21.375Z,2.10
2022-09-28T21:13:47.974Z,2.17
2022-09-28T21:16:15.305Z,2.03
2022-09-28T21:18:42.050Z,1.63
2022-09-28T21:21:09.550Z,2.15
2022-09-28T21:23:36.166Z,1.83
2022-09-28T21:26:10.518Z,2.58
2022-09-28T21:28:37.549Z,1.70
2022-09-28T21:31:08.594Z,1.60
2022-09-28T21:33:35.166Z,2.03
2022-09-28T21:36:02.402Z,1.83
2022-09-28T21:38:29.427Z,1.67
2022-09-28T21:40:59.204Z,1.63
2022-09-28T21:43:26.754Z,1.77
2022-09-28T21:45:53.725Z,1.60
2022-09-28T21:48:20.489Z,1.70
2022-09-28T21:50:56.598Z,2.08
2022-09-28T21:53:23.892Z,1.92
2022-09-28T21:55:53.000Z,1.58
2022-09-28T21:58:22.094Z,1.88
2022-09-28T22:00:49.410Z,1.70
2022-09-28T22:03:17.185Z,1.42
2022-09-28T22:05:44.274Z,1.45
2022-09-28T22:08:10.722Z,1.50
2022-09-28T22:10:37.172Z,1.65
2022-09-28T22:13:03.667Z,1.55
2022-09-28T22:15:30.357Z,1.52
2022-09-28T22:17:56.759Z,1.75
2022-09-28T22:20:23.182Z,1.40
2022-09-28T22:22:50.090Z,1.55
2022-09-28T22:25:16.675Z,1.80
2022-09-28T22:27:43.153Z,1.38
2022-09-28T22:30:09.862Z,1.70
2022-09-28T22:32:36.318Z,1.25
2022-09-28T22:35:02.798Z,1.52
2022-09-28T22:37:29.307Z,1.55
2022-09-28T22:39:55.732Z,1.65
2022-09-28T22:42:22.785Z,1.50
2022-09-28T22:44:49.221Z,1.50
2022-09-28T22:47:15.662Z,1.52
2022-09-28T22:49:42.112Z,0.98
2022-09-28T22:52:08.529Z,1.30
2022-09-28T22:54:35.081Z,1.52
2022-09-28T22:57:01.492Z,1.30
2022-09-28T22:59:27.963Z,1.50
2022-09-28T23:01:54.571Z,1.30
2022-09-28T23:04:21.056Z,1.60
2022-09-28T23:06:47.479Z,1.42
2022-09-28T23:09:13.965Z,1.30
2022-09-28T23:11:40.379Z,1.50
2022-09-28T23:14:06.905Z,1.10
2022-09-28T23:16:33.530Z,1.23
2022-09-28T23:19:00.033Z,1.40
2022-09-28T23:21:26.970Z,1.23
2022-09-28T23:23:54.965Z,1.33
2022-09-28T23:26:22.987Z,1.55
2022-09-28T23:28:49.799Z,0.98
2022-09-28T23:31:21.304Z,1.30
2022-09-28T23:33:47.831Z,1.10
2022-09-28T23:36:14.302Z,1.40
2022-09-28T23:38:40.830Z,1.75
2022-09-28T23:41:07.679Z,1.90
2022-09-28T23:43:34.526Z,0.95
2022-09-28T23:46:01.036Z,1.05
2022-09-28T23:48:27.544Z,1.10
2022-09-28T23:50:53.966Z,1.23
2022-09-28T23:53:20.426Z,1.15
2022-09-28T23:55:46.858Z,0.90
2022-09-28T23:58:13.478Z,1.00
